Time;durP1;ratioP1;P1;durP2;ratioP2;P2;SDS_P1;SDS_P2;PMS_P1;PMS_P2;Temp;Humidity;BMP_temperature;BMP_pressure;BME280_temperature;BME280_humidity;BME280_pressure;Samples;Min_cycle;Max_cycle;Signal;HPM_P1;HPM_P2
2023/05/16 00:01:54;;;;;;;8.70;0.70;;;13.90;99.90;;;12.26;100.00;99618.22;10352012;28;97384;-90
2023/05/16 00:07:04;;;;;;;1.60;0.70;;;14.00;99.90;;;12.28;100.00;99616.19;10347128;28;96391;-90
2023/05/16 00:12:21;;;;;;;66.80;5.03;;;14.00;99.90;;;12.25;100.00;99613.94;10361963;28;96550;-89
2023/05/16 00:17:37;;;;;;;1.53;0.53;;;13.90;99.90;;;12.23;100.00;99595.44;10347660;28;97975;-89
2023/05/16 00:22:48;;;;;;;13.83;1.00;;;14.00;99.90;;;12.25;100.00;99592.63;10363070;28;96506;-90
2023/05/16 00:27:52;;;;;;;0.47;0.47;;;13.90;99.90;;;12.19;100.00;99586.22;10356800;28;96653;-90
2023/05/16 00:33:04;;;;;;;1.73;0.80;;;13.90;99.90;;;12.15;100.00;99576.97;10359858;28;96809;-88
2023/05/16 00:38:16;;;;;;;1.47;0.90;;;13.90;99.90;;;12.16;100.00;99591.09;10353326;28;96759;-89
2023/05/16 00:43:28;;;;;;;2.50;0.80;;;13.80;99.90;;;12.12;100.00;99590.69;10384632;28;96795;-90
2023/05/16 00:48:40;;;;;;;2.47;1.17;;;13.80;99.90;;;12.09;100.00;99580.38;10360194;28;97196;-89
2023/05/16 00:53:46;;;;;;;2.90;1.07;;;13.80;99.90;;;12.08;100.00;99588.59;10362444;28;96772;-89
2023/05/16 00:59:00;;;;;;;1.47;1.00;;;13.70;99.90;;;12.08;100.00;99593.91;10350997;28;96649;-89
2023/05/16 01:04:06;;;;;;;0.93;0.73;;;13.70;99.90;;;12.06;100.00;99594.09;10358594;28;96696;-89
2023/05/16 01:09:11;;;;;;;1.20;0.73;;;13.70;99.90;;;12.03;100.00;99605.94;10363773;28;96624;-89
2023/05/16 01:14:39;;;;;;;5.57;1.20;;;13.70;99.90;;;12.05;100.00;99603.94;10350249;28;96737;-89
2023/05/16 01:19:51;;;;;;;2.13;1.20;;;13.70;99.90;;;12.12;100.00;99598.66;10358174;28;96663;-87
2023/05/16 01:25:25;;;;;;;1.23;0.70;;;13.80;99.90;;;12.11;100.00;99604.97;10366111;28;97160;-89
2023/05/16 01:30:38;;;;;;;3.10;1.20;;;13.80;99.90;;;12.03;100.00;99600.63;10364417;28;98109;-89
2023/05/16 01:36:02;;;;;;;16.53;2.50;;;13.80;99.90;;;12.02;100.00;99601.66;10345030;28;96624;-88
2023/05/16 01:41:52;;;;;;;5.40;0.90;;;13.70;99.90;;;12.01;100.00;99605.31;10341553;28;96594;-89
2023/05/16 01:47:00;;;;;;;2.40;1.20;;;13.70;99.90;;;11.99;100.00;99609.19;10344364;28;97643;-88
2023/05/16 01:52:26;;;;;;;5.10;1.60;;;13.70;99.90;;;11.97;100.00;99589.91;10339538;28;96605;-88
2023/05/16 01:57:30;;;;;;;2.30;1.80;;;13.70;99.90;;;11.95;100.00;99590.13;10339464;28;96659;-87
2023/05/16 02:02:33;;;;;;;3.10;2.03;;;13.70;99.90;;;11.98;100.00;99592.38;10341133;28;96750;-87
2023/05/16 02:07:37;;;;;;;4.40;1.73;;;13.70;99.90;;;11.99;100.00;99578.03;10346534;28;96999;-87
2023/05/16 02:12:41;;;;;;;2.07;1.80;;;13.70;99.90;;;11.99;100.00;99577.22;10348781;28;96601;-88
2023/05/16 02:17:44;;;;;;;1.97;1.60;;;13.60;99.90;;;11.99;100.00;99553.25;10336940;28;97525;-87
2023/05/16 02:22:48;;;;;;;3.40;2.87;;;13.60;99.90;;;11.92;100.00;99563.84;10303223;28;97029;-87
2023/05/16 02:27:51;;;;;;;3.33;1.90;;;13.60;99.90;;;11.93;100.00;99581.47;10347471;28;96533;-88
2023/05/16 02:32:55;;;;;;;2.60;2.00;;;13.60;99.90;;;11.92;100.00;99568.38;10362974;28;96491;-87
2023/05/16 02:37:58;;;;;;;2.60;1.90;;;13.60;99.90;;;11.90;100.00;99551.78;10331975;28;96513;-87
2023/05/16 02:43:01;;;;;;;6.43;3.30;;;13.60;99.90;;;11.88;100.00;99554.63;10328889;28;97315;-88
2023/05/16 02:48:04;;;;;;;4.17;2.20;;;13.60;99.90;;;11.89;100.00;99531.50;10328934;28;96799;-88
2023/05/16 02:53:08;;;;;;;3.83;3.10;;;13.50;99.90;;;11.87;100.00;99534.31;10348219;28;96572;-88
2023/05/16 02:58:11;;;;;;;4.03;3.20;;;13.50;99.90;;;11.89;100.00;99556.28;10361970;28;97551;-88
2023/05/16 03:03:14;;;;;;;3.47;2.67;;;13.50;99.90;;;11.83;100.00;99553.56;10355273;28;97573;-90
2023/05/16 03:08:18;;;;;;;14.33;4.50;;;13.50;99.90;;;11.80;100.00;99562.69;10349597;28;96661;-90
2023/05/16 03:13:21;;;;;;;8.37;2.27;;;13.50;99.90;;;11.82;100.00;99563.38;10342182;28;97342;-90
2023/05/16 03:18:24;;;;;;;6.97;2.77;;;13.50;99.90;;;11.83;100.00;99554.38;10331377;28;97943;-90
2023/05/16 03:23:28;;;;;;;2.30;2.10;;;13.50;99.90;;;11.86;100.00;99553.16;10348319;28;96516;-89
2023/05/16 03:28:31;;;;;;;3.90;2.80;;;13.50;99.90;;;11.85;100.00;99551.50;10361708;28;96880;-90
2023/05/16 03:33:34;;;;;;;4.37;2.70;;;13.50;99.90;;;11.84;100.00;99571.16;10352283;28;98399;-89
2023/05/16 03:38:37;;;;;;;2.83;2.20;;;13.50;99.90;;;11.86;100.00;99567.28;10317072;28;96610;-89
2023/05/16 03:43:40;;;;;;;7.33;4.90;;;13.50;99.90;;;11.80;100.00;99576.84;10340049;28;96832;-91
2023/05/16 03:48:43;;;;;;;4.37;3.10;;;13.50;99.90;;;11.84;100.00;99577.31;10362203;28;96426;-91
2023/05/16 03:53:46;;;;;;;8.50;3.17;;;13.50;99.90;;;11.86;100.00;99561.97;10356048;28;96395;-91
2023/05/16 03:58:49;;;;;;;3.50;2.20;;;13.50;99.90;;;11.87;100.00;99547.63;10348284;28;97311;-91
2023/05/16 04:03:52;;;;;;;2.40;2.00;;;13.50;99.90;;;11.89;100.00;99553.59;10361096;28;97922;-88
2023/05/16 04:08:55;;;;;;;2.53;2.00;;;13.60;99.90;;;11.91;100.00;99559.56;10294183;28;96658;-89
2023/05/16 04:14:00;;;;;;;4.07;2.10;;;13.50;99.90;;;11.94;100.00;99558.38;10344741;28;96667;-89
2023/05/16 04:19:03;;;;;;;2.00;1.47;;;13.60;99.90;;;11.96;100.00;99557.16;10344848;28;96565;-88
2023/05/16 04:24:07;;;;;;;20.73;2.47;;;13.60;99.90;;;12.00;100.00;99547.75;10311198;28;96763;-89
2023/05/16 04:29:10;;;;;;;2.20;1.97;;;13.60;99.90;;;12.07;100.00;99537.16;10339538;28;96563;-89
2023/05/16 04:34:14;;;;;;;9.13;2.33;;;13.70;99.90;;;12.13;100.00;99555.03;10342563;28;96686;-90
2023/05/16 04:39:17;;;;;;;5.57;3.03;;;13.80;99.90;;;12.16;100.00;99573.28;10344943;28;96718;-89
2023/05/16 04:44:21;;;;;;;4.77;2.70;;;13.90;99.90;;;12.22;100.00;99579.66;10359650;28;96681;-89
2023/05/16 04:49:24;;;;;;;193.37;73.27;;;13.90;99.90;;;12.30;100.00;99584.88;10342305;28;96755;-88
2023/05/16 04:54:27;;;;;;;46.87;21.50;;;14.00;99.90;;;12.31;100.00;99575.84;10339898;28;96615;-89
2023/05/16 04:59:30;;;;;;;57.37;32.33;;;14.00;99.90;;;12.37;100.00;99568.94;10339008;28;96606;-90
2023/05/16 05:04:33;;;;;;;39.13;23.73;;;14.00;99.90;;;12.39;100.00;99573.03;10342547;28;98581;-89
2023/05/16 05:09:36;;;;;;;27.27;16.87;;;14.00;99.90;;;12.44;100.00;99578.59;10341772;28;97445;-89
2023/05/16 05:14:39;;;;;;;19.20;11.77;;;14.10;99.90;;;12.47;100.00;99582.72;10362616;28;96674;-90
2023/05/16 05:19:42;;;;;;;27.10;11.70;;;14.20;99.90;;;12.52;100.00;99573.13;10336905;28;97892;-92
2023/05/16 05:24:46;;;;;;;9.00;4.20;;;14.20;99.90;;;12.54;100.00;99572.94;10352751;28;96834;-91
2023/05/16 05:29:48;;;;;;;44.57;5.63;;;14.20;99.90;;;12.55;100.00;99582.56;10360336;28;96561;-89
2023/05/16 05:34:51;;;;;;;27.92;3.22;;;14.20;99.90;;;12.56;100.00;99608.19;10323253;28;96978;-90
2023/05/16 05:39:55;;;;;;;4.30;1.60;;;14.30;99.90;;;12.53;100.00;99609.44;10330425;28;96632;-90
2023/05/16 05:44:58;;;;;;;6.13;2.33;;;14.20;99.90;;;12.51;100.00;99600.78;10346199;28;98170;-90
2023/05/16 05:50:02;;;;;;;10.17;3.80;;;14.20;99.90;;;12.49;100.00;99610.00;10326249;28;96692;-87
2023/05/16 05:55:06;;;;;;;19.33;3.70;;;14.30;99.90;;;12.46;100.00;99611.19;10331888;28;96555;-86
2023/05/16 06:00:10;;;;;;;8.00;2.67;;;14.20;99.90;;;12.43;100.00;99614.28;10330299;28;96659;-87
2023/05/16 06:05:13;;;;;;;8.50;3.30;;;14.10;99.90;;;12.43;100.00;99614.28;10301561;28;96574;-87
2023/05/16 06:10:16;;;;;;;4.80;2.80;;;14.10;99.90;;;12.41;100.00;99605.63;10332570;28;98094;-86
2023/05/16 06:15:19;;;;;;;6.40;3.33;;;14.10;99.90;;;12.43;100.00;99600.94;10341272;28;96560;-84
2023/05/16 06:20:22;;;;;;;6.57;4.20;;;14.10;99.90;;;12.40;100.00;99579.19;10323936;28;96631;-85
2023/05/16 06:25:25;;;;;;;9.07;5.47;;;14.10;99.90;;;12.40;100.00;99589.84;10306795;28;96683;-85
2023/05/16 06:30:29;;;;;;;10.57;5.17;;;14.00;99.90;;;12.40;100.00;99582.66;10330999;28;97000;-86
2023/05/16 06:35:32;;;;;;;16.27;5.50;;;14.00;99.90;;;12.40;100.00;99587.19;10313519;28;97301;-90
2023/05/16 06:40:35;;;;;;;14.60;4.63;;;14.10;99.90;;;12.47;100.00;99580.88;10324697;28;96773;-88
2023/05/16 06:45:38;;;;;;;7.17;3.90;;;14.10;99.90;;;12.51;100.00;99560.81;10342543;28;96656;-88
2023/05/16 06:50:41;;;;;;;7.70;5.10;;;14.20;99.90;;;12.56;100.00;99562.91;10337699;28;99082;-89
2023/05/16 06:55:46;;;;;;;5.13;3.93;;;14.20;99.90;;;12.58;100.00;99558.19;10352843;28;96727;-88
2023/05/16 07:00:50;;;;;;;5.93;3.50;;;14.20;99.90;;;12.63;100.00;99555.75;10330574;28;96628;-89
2023/05/16 07:05:53;;;;;;;7.33;3.43;;;14.20;99.90;;;12.69;100.00;99551.47;10350847;28;97518;-89
2023/05/16 07:10:55;;;;;;;9.57;5.33;;;14.30;99.90;;;12.70;100.00;99561.94;10329996;28;98403;-88
2023/05/16 07:15:58;;;;;;;17.47;5.60;;;14.40;99.90;;;12.71;100.00;99566.25;10314558;28;97206;-88
2023/05/16 07:21:01;;;;;;;10.27;4.80;;;14.40;99.90;;;12.76;100.00;99571.00;10335693;28;97359;-88
2023/05/16 07:26:05;;;;;;;10.07;3.93;;;14.40;99.90;;;12.78;100.00;99579.63;10337706;28;98132;-89
2023/05/16 07:31:08;;;;;;;8.73;2.50;;;14.40;99.90;;;12.73;100.00;99582.06;10335825;28;98079;-88
2023/05/16 07:36:12;;;;;;;11.00;3.93;;;14.40;99.90;;;12.70;100.00;99583.25;10335952;28;99215;-88
2023/05/16 07:41:19;;;;;;;14.47;3.30;;;14.40;99.90;;;12.72;100.00;99559.09;10325021;28;98217;-90
2023/05/16 07:46:22;;;;;;;7.13;2.90;;;14.40;99.90;;;12.70;100.00;99559.28;10334060;28;96627;-88
2023/05/16 07:51:25;;;;;;;3.27;2.20;;;14.40;99.90;;;12.61;100.00;99564.97;10345740;28;96765;-91
2023/05/16 07:56:28;;;;;;;16.70;2.70;;;14.30;99.90;;;12.59;100.00;99570.47;10358841;28;96533;-90
2023/05/16 08:01:32;;;;;;;7.57;2.50;;;14.30;99.90;;;12.54;100.00;99580.94;10341144;28;96952;-87
2023/05/16 08:06:35;;;;;;;6.10;2.40;;;14.20;99.90;;;12.49;100.00;99572.69;10328149;28;97309;-90
2023/05/16 08:11:39;;;;;;;3.10;2.53;;;14.10;99.90;;;12.43;100.00;99578.81;10341915;28;96469;-91
2023/05/16 08:16:42;;;;;;;7.53;2.70;;;14.10;99.90;;;12.38;100.00;99568.72;10357427;28;96505;-89
2023/05/16 08:21:45;;;;;;;7.33;2.90;;;14.00;99.90;;;12.39;100.00;99575.69;10339826;28;98319;-88
2023/05/16 08:26:48;;;;;;;7.83;3.07;;;14.00;99.90;;;12.38;100.00;99576.72;10357392;28;97444;-90
2023/05/16 08:31:51;;;;;;;6.10;3.50;;;14.00;99.90;;;12.38;100.00;99587.38;10353874;28;96675;-92
2023/05/16 08:36:54;;;;;;;6.37;3.80;;;14.00;99.90;;;12.36;100.00;99578.75;10349204;28;96713;-89
2023/05/16 08:41:58;;;;;;;8.73;5.43;;;14.00;99.90;;;12.37;100.00;99587.59;10337640;28;98380;-90
2023/05/16 08:47:16;;;;;;;9.07;5.30;;;14.00;99.90;;;12.39;100.00;99578.38;10334768;28;98523;-89
2023/05/16 08:52:21;;;;;;;12.10;5.90;;;14.00;99.90;;;12.38;100.00;99559.91;10354160;28;96823;-88
2023/05/16 08:57:26;;;;;;;14.60;6.27;;;14.00;99.90;;;12.39;100.00;99554.38;10341779;28;96731;-90
2023/05/16 09:02:29;;;;;;;11.20;6.83;;;14.00;99.90;;;12.41;100.00;99544.34;10328331;28;97308;-90
2023/05/16 09:07:33;;;;;;;12.27;6.00;;;14.00;99.90;;;12.44;100.00;99543.97;10326555;28;96547;-89
2023/05/16 09:12:36;;;;;;;21.23;6.63;;;14.00;99.90;;;12.47;100.00;99538.22;10305964;28;96476;-90
2023/05/16 09:17:45;;;;;;;9.53;7.47;;;14.10;99.90;;;12.50;100.00;99529.03;10335346;28;96642;-90
2023/05/16 09:22:55;;;;;;;9.00;6.93;;;14.10;99.90;;;12.56;100.00;99531.72;10340591;28;97140;-86
2023/05/16 09:28:18;;;;;;;79.70;51.43;;;14.20;99.90;;;12.64;100.00;99533.41;10345726;28;96507;-88
2023/05/16 09:33:22;;;;;;;21.77;13.53;;;14.20;99.90;;;12.75;100.00;99540.03;10347374;28;96469;-90
2023/05/16 09:38:27;;;;;;;9.97;7.63;;;14.30;99.90;;;12.79;100.00;99535.97;10359984;28;96557;-87
2023/05/16 09:43:30;;;;;;;8.13;6.37;;;14.40;99.90;;;12.82;100.00;99540.88;10280660;28;96698;-88
2023/05/16 09:48:33;;;;;;;8.47;6.40;;;14.40;99.90;;;12.88;100.00;99521.41;10310112;28;96613;-89
2023/05/16 09:53:38;;;;;;;15.43;7.57;;;14.50;99.90;;;12.90;100.00;99522.06;10299093;28;98449;-87
2023/05/16 09:58:43;;;;;;;8.25;5.80;;;14.50;99.90;;;12.96;100.00;99523.09;10319914;28;96636;-86
2023/05/16 10:03:46;;;;;;;236.98;136.30;;;14.60;99.90;;;12.97;100.00;99522.91;10320017;28;96693;-86
2023/05/16 10:08:51;;;;;;;107.73;82.53;;;14.60;99.90;;;12.97;100.00;99528.25;10319348;28;96416;-87
2023/05/16 10:13:55;;;;;;;25.00;16.33;;;14.60;99.90;;;13.03;100.00;99518.63;10278742;28;98055;-87
2023/05/16 10:19:00;;;;;;;15.20;9.32;;;14.60;99.90;;;13.02;100.00;99512.47;10313052;28;96915;-87
2023/05/16 10:24:06;;;;;;;12.20;6.90;;;14.60;99.90;;;13.00;100.00;99511.81;10316780;28;96673;-87
2023/05/16 10:29:10;;;;;;;8.02;6.55;;;14.60;99.90;;;12.99;100.00;99520.84;10283703;28;96634;-89
2023/05/16 10:34:16;;;;;;;7.73;6.37;;;14.60;99.90;;;13.00;100.00;99522.50;10278599;28;96572;-89
2023/05/16 10:39:20;;;;;;;11.85;6.28;;;14.60;99.90;;;13.02;100.00;99507.13;10272762;28;97137;-87
2023/05/16 10:44:23;;;;;;;14.85;6.38;;;14.60;99.90;;;13.02;100.00;99488.47;10317270;28;96657;-89
2023/05/16 10:49:32;;;;;;;11.93;7.32;;;14.60;99.90;;;13.06;100.00;99499.53;10318334;28;97505;-91
2023/05/16 10:54:41;;;;;;;18.98;8.63;;;14.70;99.90;;;13.08;100.00;99482.31;10336579;28;96476;-91
2023/05/16 10:59:47;;;;;;;15.43;9.68;;;14.70;99.90;;;13.11;100.00;99475.75;10327961;28;98199;-91
2023/05/16 11:04:54;;;;;;;12.13;7.80;;;14.70;99.90;;;13.13;100.00;99471.88;10305672;28;96748;-93
2023/05/16 11:10:14;;;;;;;17.50;8.82;;;14.70;99.90;;;13.17;100.00;99458.94;10336335;28;96430;-91
2023/05/16 11:15:20;;;;;;;12.20;8.90;;;14.80;99.90;;;13.23;100.00;99441.31;10320842;28;96491;-92
2023/05/16 11:20:33;;;;;;;16.52;11.50;;;14.80;99.90;;;13.30;100.00;99436.81;10336438;28;96401;-91
2023/05/16 11:25:39;;;;;;;12.05;8.75;;;14.90;99.90;;;13.41;100.00;99432.72;10336192;28;96471;-89
2023/05/16 11:30:48;;;;;;;33.30;18.45;;;15.00;99.90;;;13.47;100.00;99415.88;10317313;28;96759;-92
2023/05/16 11:36:07;;;;;;;12.30;8.52;;;15.00;99.90;;;13.57;100.00;99419.78;10315423;28;96697;-89
2023/05/16 11:41:19;;;;;;;14.13;9.23;;;15.10;99.90;;;13.61;100.00;99425.53;10317068;28;96927;-89
2023/05/16 11:46:23;;;;;;;10.10;7.15;;;15.20;99.90;;;13.64;100.00;99422.44;10337938;28;96534;-89
2023/05/16 11:51:26;;;;;;;11.23;7.75;;;15.20;99.90;;;13.71;100.00;99422.44;10331557;28;96595;-89
2023/05/16 11:56:31;;;;;;;9.80;6.55;;;15.20;99.90;;;13.74;100.00;99411.38;10341511;28;97224;-88
2023/05/16 12:01:36;;;;;;;15.23;7.35;;;15.30;99.90;;;13.80;100.00;99400.69;10337135;28;96959;-88
2023/05/16 12:06:44;;;;;;;9.32;6.90;;;15.30;99.90;;;13.84;100.00;99390.38;10317552;28;96602;-89
2023/05/16 12:11:47;;;;;;;11.20;7.60;;;15.40;99.90;;;13.86;100.00;99389.16;10324811;28;96522;-88
2023/05/16 12:16:51;;;;;;;14.98;6.90;;;15.40;99.90;;;13.92;100.00;99384.84;10340814;28;96583;-87
2023/05/16 12:21:54;;;;;;;27.23;10.18;;;15.50;99.90;;;13.95;100.00;99384.41;10341444;28;97286;-89
2023/05/16 12:26:57;;;;;;;9.82;6.78;;;15.50;99.90;;;14.00;100.00;99386.44;10356614;28;96720;-90
2023/05/16 12:32:00;;;;;;;10.45;5.40;;;15.60;99.90;;;14.06;100.00;99389.09;10337263;28;96754;-90
2023/05/16 12:37:05;;;;;;;6.40;4.75;;;15.60;99.90;;;14.07;100.00;99390.72;10371538;28;96610;-90
2023/05/16 12:42:08;;;;;;;9.75;6.55;;;15.60;99.90;;;14.12;100.00;99390.94;10356398;28;96564;-90
2023/05/16 12:47:12;;;;;;;13.32;6.43;;;15.70;99.90;;;14.14;100.00;99377.34;10357726;28;98147;-88
2023/05/16 12:52:20;;;;;;;22.63;6.78;;;15.70;99.90;;;14.13;100.00;99373.03;10340641;28;97586;-87
2023/05/16 12:57:23;;;;;;;22.63;7.63;;;15.70;99.90;;;14.15;100.00;99379.00;10343156;28;97958;-88
2023/05/16 13:02:27;;;;;;;10.32;5.72;;;15.70;99.90;;;14.18;100.00;99383.94;10350626;28;96761;-88
2023/05/16 13:07:30;;;;;;;12.48;6.30;;;15.80;99.90;;;14.20;100.00;99384.53;10331082;28;96507;-88
2023/05/16 13:12:32;;;;;;;18.80;6.53;;;15.80;99.90;;;14.24;100.00;99376.91;10360394;28;97197;-89
2023/05/16 13:17:37;;;;;;;17.00;7.40;;;15.80;99.90;;;14.22;100.00;99379.00;10348826;28;97288;-89
2023/05/16 13:22:42;;;;;;;15.63;7.63;;;15.80;99.90;;;14.25;100.00;99371.34;10352767;28;97005;-88
2023/05/16 13:27:48;;;;;;;18.95;6.72;;;15.90;99.90;;;14.20;100.00;99357.81;10328988;28;96813;-88
2023/05/16 13:32:51;;;;;;;9.90;7.18;;;15.80;99.90;;;14.25;100.00;99346.50;10340750;28;97866;-89
2023/05/16 13:37:54;;;;;;;12.25;6.75;;;15.80;99.90;;;14.28;100.00;99340.72;10374976;28;96909;-88
2023/05/16 13:42:57;;;;;;;16.80;7.15;;;15.90;99.90;;;14.30;100.00;99326.13;10358589;28;96687;-89
2023/05/16 13:48:00;;;;;;;15.02;6.63;;;15.90;99.90;;;14.32;100.00;99318.69;10344469;28;97246;-88
2023/05/16 13:53:03;;;;;;;13.98;7.45;;;15.90;99.90;;;14.36;100.00;99309.22;10344451;28;96744;-87
2023/05/16 13:58:06;;;;;;;12.40;6.60;;;15.90;99.90;;;14.38;100.00;99287.63;10341947;28;97895;-85
2023/05/16 14:03:09;;;;;;;21.20;7.43;;;15.90;99.90;;;14.42;100.00;99307.56;10337417;28;96645;-85
2023/05/16 14:08:13;;;;;;;17.80;8.02;;;16.00;99.90;;;14.50;100.00;99298.47;10346492;28;96664;-86
2023/05/16 14:13:16;;;;;;;12.70;5.75;;;16.00;99.90;;;14.53;100.00;99282.84;10317986;28;96826;-85
2023/05/16 14:18:19;;;;;;;15.20;5.45;;;16.10;99.90;;;14.64;100.00;99278.66;10338021;28;97260;-86
2023/05/16 14:23:22;;;;;;;9.27;4.93;;;16.20;99.90;;;14.70;100.00;99283.97;10339561;28;96606;-85
2023/05/16 14:28:25;;;;;;;8.95;4.22;;;16.30;99.90;;;14.79;100.00;99281.00;10343427;28;96894;-86
2023/05/16 14:33:29;;;;;;;17.02;6.35;;;16.40;99.90;;;14.81;100.00;99290.44;10321399;28;98040;-86
2023/05/16 14:38:32;;;;;;;25.33;6.13;;;16.40;99.90;;;14.88;100.00;99293.09;10354246;28;96688;-87
2023/05/16 14:43:37;;;;;;;12.77;7.50;;;16.50;99.90;;;14.89;100.00;99292.88;10338718;28;96939;-88
2023/05/16 14:48:40;;;;;;;9.75;6.57;;;16.50;99.90;;;14.93;100.00;99303.94;10322516;28;96776;-88
2023/05/16 14:53:43;;;;;;;9.27;6.63;;;16.50;99.90;;;14.91;100.00;99298.00;10334441;28;98545;-83
2023/05/16 14:58:48;;;;;;;14.05;8.27;;;16.50;99.90;;;14.94;100.00;99306.41;10346721;28;96670;-84
2023/05/16 15:03:52;;;;;;;15.02;8.02;;;16.50;99.90;;;14.93;100.00;99303.94;10355813;28;97862;-85
2023/05/16 15:08:58;;;;;;;29.55;8.60;;;16.50;99.90;;;14.92;100.00;99299.63;10324770;28;98605;-88
2023/05/16 15:14:01;;;;;;;16.08;7.93;;;16.50;99.90;;;14.91;100.00;99296.13;10332845;28;97235;-87
2023/05/16 15:19:04;;;;;;;58.55;8.70;;;16.50;99.90;;;14.89;100.00;99287.53;10332967;28;96973;-89
2023/05/16 15:24:07;;;;;;;18.83;7.22;;;16.50;99.90;;;14.96;100.00;99292.81;10344394;28;96530;-88
2023/05/16 15:29:10;;;;;;;10.60;6.18;;;16.50;99.90;;;14.96;100.00;99298.16;10365353;28;96500;-89
2023/05/16 15:34:14;;;;;;;18.65;8.55;;;16.50;99.90;;;14.96;100.00;99306.19;10322719;28;96708;-88
2023/05/16 15:39:17;;;;;;;12.65;8.55;;;16.60;99.90;;;14.96;100.00;99290.94;10339068;28;97931;-90
2023/05/16 15:44:21;;;;;;;13.35;6.63;;;16.60;99.90;;;14.99;100.00;99297.72;10325199;28;97401;-94
2023/05/16 15:49:24;;;;;;;16.80;7.25;;;16.60;99.90;;;14.97;100.00;99289.91;10346870;28;97059;-90
2023/05/16 15:54:28;;;;;;;14.27;7.80;;;16.60;99.90;;;14.96;100.00;99287.47;10327892;28;97127;-92
2023/05/16 15:59:31;;;;;;;15.25;7.97;;;16.60;99.90;;;14.94;100.00;99293.03;10345933;28;96499;-94
2023/05/16 16:04:34;;;;;;;18.88;7.28;;;16.60;99.90;;;14.93;100.00;99263.81;10379837;28;96516;-95
2023/05/16 16:09:37;;;;;;;14.40;8.20;;;16.60;99.90;;;14.92;100.00;99262.19;10344599;28;96599;-95
2023/05/16 16:14:40;;;;;;;12.95;7.78;;;16.60;99.90;;;14.90;100.00;99251.69;10345138;28;96327;-94
2023/05/16 16:19:43;;;;;;;19.17;10.38;;;16.60;99.90;;;14.92;100.00;99257.66;10346122;28;97280;-95
2023/05/16 16:24:46;;;;;;;15.52;8.30;;;16.50;99.90;;;14.94;100.00;99263.63;10332142;28;96447;-93
2023/05/16 16:29:49;;;;;;;14.48;9.32;;;16.60;99.90;;;14.92;100.00;99265.66;10343151;28;96422;-94
2023/05/16 16:34:52;;;;;;;33.60;9.85;;;16.60;99.90;;;14.95;100.00;99269.78;10318361;28;97053;-91
2023/05/16 16:39:55;;;;;;;36.53;10.18;;;16.60;99.90;;;14.90;100.00;99283.81;10355602;28;96534;-93
2023/05/16 16:44:58;;;;;;;12.25;7.60;;;16.50;99.90;;;14.86;100.00;99287.13;10342099;28;96443;-92
2023/05/16 16:50:01;;;;;;;28.65;8.45;;;16.50;99.90;;;14.79;100.00;99275.66;10341925;28;96544;-93
2023/05/16 16:55:06;;;;;;;35.83;9.68;;;16.40;99.90;;;14.74;100.00;99270.97;10343429;28;97193;-93
2023/05/16 17:00:10;;;;;;;14.20;7.60;;;16.40;99.90;;;14.73;100.00;99269.31;10302649;28;96409;-95
2023/05/16 17:05:14;;;;;;;24.75;8.98;;;16.40;99.90;;;14.68;100.00;99274.50;10338510;28;96753;-94
2023/05/16 17:10:17;;;;;;;17.55;8.65;;;16.30;99.90;;;14.64;100.00;99273.31;10342667;28;96437;-95
2023/05/16 17:15:20;;;;;;;12.10;7.50;;;16.30;99.90;;;14.68;100.00;99263.81;10301940;28;96526;-94
2023/05/16 17:20:24;;;;;;;15.32;7.03;;;16.30;99.90;;;14.66;100.00;99258.69;10350716;28;96596;-94
2023/05/16 17:25:27;;;;;;;39.08;10.68;;;16.30;99.90;;;14.62;100.00;99260.16;10321389;28;97114;-93
2023/05/16 17:30:31;;;;;;;27.60;10.07;;;16.20;99.90;;;14.62;100.00;99265.50;10332921;28;98220;-94
2023/05/16 17:35:34;;;;;;;13.13;7.05;;;16.20;99.90;;;14.61;100.00;99269.19;10351441;28;98229;-92
2023/05/16 17:40:38;;;;;;;9.80;6.97;;;16.20;99.90;;;14.60;100.00;99262.22;10342040;28;98099;-95
2023/05/16 17:45:41;;;;;;;11.05;5.30;;;16.20;99.90;;;14.57;100.00;99251.94;10339815;28;98342;-95
2023/05/16 17:50:44;;;;;;;9.43;5.88;;;16.20;99.90;;;14.56;100.00;99253.00;10339353;28;96737;-95
2023/05/16 17:55:48;;;;;;;27.38;8.45;;;16.10;99.90;;;14.51;100.00;99284.91;10372759;28;96246;-95
2023/05/16 18:00:52;;;;;;;29.35;13.25;;;16.10;99.90;;;14.47;100.00;99273.00;10355661;28;96370;-96
2023/05/16 18:05:56;;;;;;;20.20;11.10;;;16.00;99.90;;;14.44;100.00;99268.88;10352748;28;96666;-90
2023/05/16 18:10:59;;;;;;;34.33;11.02;;;16.10;99.90;;;14.44;100.00;99254.69;10325901;28;96789;-89
2023/05/16 18:16:02;;;;;;;22.45;9.35;;;16.10;99.90;;;14.44;100.00;99268.88;10334951;28;97048;-90
2023/05/16 18:21:05;;;;;;;26.13;9.75;;;16.00;99.90;;;14.41;100.00;99258.63;10350459;28;96680;-85
2023/05/16 18:26:11;;;;;;;15.43;8.73;;;16.00;99.90;;;14.37;100.00;99259.25;10341536;28;96629;-86
2023/05/16 18:31:14;;;;;;;23.83;8.88;;;16.00;99.90;;;14.41;100.00;99253.28;10337159;28;98583;-88
2023/05/16 18:36:17;;;;;;;30.58;10.70;;;16.00;99.90;;;14.37;100.00;99265.41;10341431;28;96496;-86
2023/05/16 18:41:21;;;;;;;10.68;7.57;;;16.00;99.90;;;14.36;100.00;99271.81;10334752;28;96688;-88
2023/05/16 18:46:24;;;;;;;21.48;9.80;;;16.00;99.90;;;14.40;100.00;99277.56;10340584;28;96709;-87
2023/05/16 18:51:27;;;;;;;19.25;9.05;;;16.00;99.90;;;14.40;100.00;99272.22;10351983;28;97445;-86
2023/05/16 18:56:30;;;;;;;16.00;7.97;;;16.00;99.90;;;14.41;100.00;99252.47;10325457;28;97964;-86
2023/05/16 19:01:34;;;;;;;16.90;7.63;;;16.00;99.90;;;14.38;100.00;99255.53;10351271;28;98006;-89
2023/05/16 19:06:38;;;;;;;16.13;7.20;;;16.00;99.90;;;14.36;100.00;99262.97;10354667;28;96682;-91
2023/05/16 19:11:41;;;;;;;19.65;9.57;;;16.00;99.90;;;14.32;100.00;99267.91;10336307;28;97794;-89
2023/05/16 19:16:44;;;;;;;16.02;9.85;;;15.90;99.90;;;14.29;100.00;99279.06;10338592;28;96873;-88
2023/05/16 19:21:47;;;;;;;21.30;9.80;;;15.90;99.90;;;14.25;100.00;99283.16;10353755;28;97310;-88
2023/05/16 19:26:50;;;;;;;19.83;12.40;;;15.80;99.90;;;14.23;100.00;99273.75;10331455;28;98186;-89
2023/05/16 19:31:53;;;;;;;19.40;11.80;;;15.80;99.90;;;14.20;100.00;99273.13;10371543;28;97299;-88
2023/05/16 19:36:56;;;;;;;19.17;12.90;;;15.80;99.90;;;14.19;100.00;99270.66;10340670;28;97523;-88
2023/05/16 19:42:00;;;;;;;16.23;9.85;;;15.80;99.90;;;14.15;100.00;99270.28;10321016;28;96741;-88
2023/05/16 19:47:09;;;;;;;14.23;8.90;;;15.70;99.90;;;14.17;100.00;99280.75;10355886;28;96697;-89
2023/05/16 19:52:13;;;;;;;14.73;9.27;;;15.70;99.90;;;14.14;100.00;99276.66;10362950;28;96607;-89
2023/05/16 19:57:16;;;;;;;13.07;7.60;;;15.70;99.90;;;14.17;100.00;99286.91;10335736;28;96648;-89
2023/05/16 20:02:19;;;;;;;12.60;7.75;;;15.70;99.90;;;14.13;100.00;99275.00;10355425;28;98421;-89
2023/05/16 20:07:26;;;;;;;16.92;9.52;;;15.70;99.90;;;14.19;100.00;99284.03;10340254;28;96740;-90
2023/05/16 20:12:31;;;;;;;19.13;10.45;;;15.70;99.90;;;14.15;100.00;99262.28;10333337;28;97535;-90
2023/05/16 20:17:34;;;;;;;15.23;10.25;;;15.80;99.90;;;14.17;100.00;99270.88;10348699;28;98111;-91
2023/05/16 20:22:38;;;;;;;22.70;10.70;;;15.80;99.90;;;14.09;100.00;99255.13;10358582;28;96714;-93
2023/05/16 20:27:41;;;;;;;23.88;11.27;;;15.70;99.90;;;14.07;100.00;99267.84;10344122;28;96391;-93
2023/05/16 20:32:44;;;;;;;18.92;10.35;;;15.60;99.90;;;14.04;100.00;99260.28;10357680;28;98115;-93
2023/05/16 20:37:47;;;;;;;20.45;12.27;;;15.60;99.90;;;13.93;100.00;99258.28;10327237;28;96485;-93
2023/05/16 20:42:50;;;;;;;14.52;9.50;;;15.50;99.90;;;13.95;100.00;99258.06;10322569;28;96645;-95